Aviation Digital Data Service (ADDS)

Output produced by METARs form (1401 UTC 22 April 2019)
found at http://www.aviationweather.gov/metar/data/
 
METAR text: CYOW 221300Z 01007KT 15SM FEW100 FEW220 10/06 A3026 RMK AC1CI1 SLP253
Conditions at: CYOW (OTTAWA INTL , ON, CA) observed 1300 UTC 22 April 2019
Temperature: 10.0°C (50°F)
Dewpoint: 6.0°C (43°F) [RH = 76%]
Pressure (altimeter): 30.26 inches Hg (1024.8 mb)
[Sea-level pressure: 1025.3 mb]
Winds: from the N (10 degrees) at 8 MPH (7 knots; 3.6 m/s)
Visibility: 15 miles (24 km)
Ceiling: at least 12,000 feet AGL
Clouds: few clouds at 10000 feet AGL
few clouds at 22000 feet AGL
Weather: no significant weather observed at this time

METAR text: CYOW 221200Z 32009KT 310V010 15SM SCT095 06/05 A3026 RMK AC4 SLP251
Conditions at: CYOW (OTTAWA INTL , ON, CA) observed 1200 UTC 22 April 2019
Temperature: 6.0°C (43°F)
Dewpoint: 5.0°C (41°F) [RH = 93%]
Pressure (altimeter): 30.26 inches Hg (1024.8 mb)
[Sea-level pressure: 1025.1 mb]
Winds: from the NW (320 degrees) at 10 MPH (9 knots; 4.6 m/s)
Visibility: 15 miles (24 km)
Ceiling: at least 12,000 feet AGL
Clouds: scattered clouds at 9500 feet AGL
Weather: no significant weather observed at this time

METAR text: CYOW 221100Z 06004KT 15SM BKN096 06/05 A3023 RMK AC7 SLP240
Conditions at: CYOW (OTTAWA INTL , ON, CA) observed 1100 UTC 22 April 2019
Temperature: 6.0°C (43°F)
Dewpoint: 5.0°C (41°F) [RH = 93%]
Pressure (altimeter): 30.23 inches Hg (1023.8 mb)
[Sea-level pressure: 1024.0 mb]
Winds: from the ENE (60 degrees) at 5 MPH (4 knots; 2.1 m/s)
Visibility: 15 miles (24 km)
Ceiling: 9600 feet AGL
Clouds: broken clouds at 9600 feet AGL
Weather: no significant weather observed at this time

METAR text: CYOW 221000Z 31004KT 15SM R32/2400VP6000FT/N PRFG FEW026 FEW095 04/03 A3022 RMK SC1AC2 SC TR SLP238
Conditions at: CYOW (OTTAWA INTL , ON, CA) observed 1000 UTC 22 April 2019
Temperature: 4.0°C (39°F)
Dewpoint: 3.0°C (37°F) [RH = 93%]
Pressure (altimeter): 30.22 inches Hg (1023.5 mb)
[Sea-level pressure: 1023.8 mb]
Winds: from the NW (310 degrees) at 5 MPH (4 knots; 2.1 m/s)
Visibility: 15 miles (24 km)
Ceiling: at least 12,000 feet AGL
Clouds: few clouds at 2600 feet AGL
few clouds at 9500 feet AGL
Weather: PRFG  (partial fog)

METAR text: CYOW 220945Z 29003KT 15SM R32/1800FT/N PRFG FEW026 FEW095 03/02 A3021 RMK SC1AC2 SC TR SLP235
Conditions at: CYOW (OTTAWA INTL , ON, CA) observed 0945 UTC 22 April 2019
Temperature: 3.0°C (37°F)
Dewpoint: 2.0°C (36°F) [RH = 93%]
Pressure (altimeter): 30.21 inches Hg (1023.1 mb)
[Sea-level pressure: 1023.5 mb]
Winds: from the WNW (290 degrees) at 3 MPH (3 knots; 1.5 m/s)
Visibility: 15 miles (24 km)
Ceiling: at least 12,000 feet AGL
Clouds: few clouds at 2600 feet AGL
few clouds at 9500 feet AGL
Weather: PRFG  (partial fog)

METAR text: CYOW 220917Z CCA 28003KT 15SM R32/2800V6000FT/D PRFG FEW026 03/03 A3021 RMK SC1 SLP233
Conditions at: CYOW (OTTAWA INTL , ON, CA) observed 0917 UTC 22 April 2019
Temperature: 3.0°C (37°F)
Dewpoint: 3.0°C (37°F) [RH = 100%]
Pressure (altimeter): 30.21 inches Hg (1023.1 mb)
[Sea-level pressure: 1023.3 mb]
Winds: from the W (280 degrees) at 3 MPH (3 knots; 1.5 m/s)
Visibility: 15 miles (24 km)
Ceiling: at least 12,000 feet AGL
Clouds: few clouds at 2600 feet AGL
Weather: PRFG  (partial fog)

METAR text: CYOW 220908Z VRB02KT 15SM R32/3500VP6000FT/U MIFG FEW026 05/04 A3020 RMK SC1 MIFG DVLPG SLP233
Conditions at: CYOW (OTTAWA INTL , ON, CA) observed 0908 UTC 22 April 2019
Temperature: 5.0°C (41°F)
Dewpoint: 4.0°C (39°F) [RH = 93%]
Pressure (altimeter): 30.20 inches Hg (1022.8 mb)
[Sea-level pressure: 1023.3 mb]
Winds: variable direction winds at 2 MPH (2 knots; 1.0 m/s)
Visibility: 15 miles (24 km)
Ceiling: at least 12,000 feet AGL
Clouds: few clouds at 2600 feet AGL
Weather: MIFG  (shallow fog)

METAR text: CYOW 220900Z 00000KT 15SM R32/4500VP6000FT/U FEW026 05/04 A3020 RMK SC1 SLP233
Conditions at: CYOW (OTTAWA INTL , ON, CA) observed 0900 UTC 22 April 2019
Temperature: 5.0°C (41°F)
Dewpoint: 4.0°C (39°F) [RH = 93%]
Pressure (altimeter): 30.20 inches Hg (1022.8 mb)
[Sea-level pressure: 1023.3 mb]
Winds: calm
Visibility: 15 miles (24 km)
Ceiling: at least 12,000 feet AGL
Clouds: few clouds at 2600 feet AGL
Weather: no significant weather observed at this time

METAR text: CYOW 220800Z 35006KT 15SM FEW022 05/04 A3019 RMK SC1 SC TR SLP229
Conditions at: CYOW (OTTAWA INTL , ON, CA) observed 0800 UTC 22 April 2019
Temperature: 5.0°C (41°F)
Dewpoint: 4.0°C (39°F) [RH = 93%]
Pressure (altimeter): 30.19 inches Hg (1022.4 mb)
[Sea-level pressure: 1022.9 mb]
Winds: from the N (350 degrees) at 7 MPH (6 knots; 3.1 m/s)
Visibility: 15 miles (24 km)
Ceiling: at least 12,000 feet AGL
Clouds: few clouds at 2200 feet AGL
Weather: no significant weather observed at this time

METAR text: CYOW 220700Z 36004KT 15SM SKC 06/05 A3018 RMK SLP225
Conditions at: CYOW (OTTAWA INTL , ON, CA) observed 0700 UTC 22 April 2019
Temperature: 6.0°C (43°F)
Dewpoint: 5.0°C (41°F) [RH = 93%]
Pressure (altimeter): 30.18 inches Hg (1022.1 mb)
[Sea-level pressure: 1022.5 mb]
Winds: from the N (360 degrees) at 5 MPH (4 knots; 2.1 m/s)
Visibility: 15 miles (24 km)
Ceiling: at least 12,000 feet AGL
Clouds: clear skies
Weather: no significant weather observed at this time

METAR text: CYOW 220600Z 00000KT 15SM FEW026 07/05 A3018 RMK SC1 SC TR SLP224
Conditions at: CYOW (OTTAWA INTL , ON, CA) observed 0600 UTC 22 April 2019
Temperature: 7.0°C (45°F)
Dewpoint: 5.0°C (41°F) [RH = 87%]
Pressure (altimeter): 30.18 inches Hg (1022.1 mb)
[Sea-level pressure: 1022.4 mb]
Winds: calm
Visibility: 15 miles (24 km)
Ceiling: at least 12,000 feet AGL
Clouds: few clouds at 2600 feet AGL
Weather: no significant weather observed at this time

METAR text: CYOW 220500Z 07002KT 15SM FEW026 07/06 A3019 RMK SC1 SC TR SLP228
Conditions at: CYOW (OTTAWA INTL , ON, CA) observed 0500 UTC 22 April 2019
Temperature: 7.0°C (45°F)
Dewpoint: 6.0°C (43°F) [RH = 93%]
Pressure (altimeter): 30.19 inches Hg (1022.4 mb)
[Sea-level pressure: 1022.8 mb]
Winds: from the ENE (70 degrees) at 2 MPH (2 knots; 1.0 m/s)
Visibility: 15 miles (24 km)
Ceiling: at least 12,000 feet AGL
Clouds: few clouds at 2600 feet AGL
Weather: no significant weather observed at this time

METAR text: CYOW 220400Z 05003KT 15SM FEW026 06/05 A3018 RMK SC1 SLP226
Conditions at: CYOW (OTTAWA INTL , ON, CA) observed 0400 UTC 22 April 2019
Temperature: 6.0°C (43°F)
Dewpoint: 5.0°C (41°F) [RH = 93%]
Pressure (altimeter): 30.18 inches Hg (1022.1 mb)
[Sea-level pressure: 1022.6 mb]
Winds: from the NE (50 degrees) at 3 MPH (3 knots; 1.5 m/s)
Visibility: 15 miles (24 km)
Ceiling: at least 12,000 feet AGL
Clouds: few clouds at 2600 feet AGL
Weather: no significant weather observed at this time

METAR text: CYOW 220300Z 04005KT 330V060 15SM SCT026 09/06 A3017 RMK SC3 SLP220
Conditions at: CYOW (OTTAWA INTL , ON, CA) observed 0300 UTC 22 April 2019
Temperature: 9.0°C (48°F)
Dewpoint: 6.0°C (43°F) [RH = 81%]
Pressure (altimeter): 30.17 inches Hg (1021.8 mb)
[Sea-level pressure: 1022.0 mb]
Winds: from the NE (40 degrees) at 6 MPH (5 knots; 2.6 m/s)
Visibility: 15 miles (24 km)
Ceiling: at least 12,000 feet AGL
Clouds: scattered clouds at 2600 feet AGL
Weather: no significant weather observed at this time

METAR text: CYOW 220200Z 26005KT 15SM BKN024 10/07 A3016 RMK SC7 SLP217
Conditions at: CYOW (OTTAWA INTL , ON, CA) observed 0200 UTC 22 April 2019
Temperature: 10.0°C (50°F)
Dewpoint: 7.0°C (45°F) [RH = 82%]
Pressure (altimeter): 30.16 inches Hg (1021.4 mb)
[Sea-level pressure: 1021.7 mb]
Winds: from the W (260 degrees) at 6 MPH (5 knots; 2.6 m/s)
Visibility: 15 miles (24 km)
Ceiling: 2400 feet AGL
Clouds: broken clouds at 2400 feet AGL
Weather: no significant weather observed at this time

METAR text: CYOW 220100Z 28002KT 15SM BKN025 11/07 A3014 RMK SC7 SLP211
Conditions at: CYOW (OTTAWA INTL , ON, CA) observed 0100 UTC 22 April 2019
Temperature: 11.0°C (52°F)
Dewpoint: 7.0°C (45°F) [RH = 76%]
Pressure (altimeter): 30.14 inches Hg (1020.7 mb)
[Sea-level pressure: 1021.1 mb]
Winds: from the W (280 degrees) at 2 MPH (2 knots; 1.0 m/s)
Visibility: 15 miles (24 km)
Ceiling: 2500 feet AGL
Clouds: broken clouds at 2500 feet AGL
Weather: no significant weather observed at this time

METAR text: CYOW 220000Z 31006KT 15SM BKN026 11/07 A3011 RMK SC7 SLP199
Conditions at: CYOW (OTTAWA INTL , ON, CA) observed 0000 UTC 22 April 2019
Temperature: 11.0°C (52°F)
Dewpoint: 7.0°C (45°F) [RH = 76%]
Pressure (altimeter): 30.11 inches Hg (1019.7 mb)
[Sea-level pressure: 1019.9 mb]
Winds: from the NW (310 degrees) at 7 MPH (6 knots; 3.1 m/s)
Visibility: 15 miles (24 km)
Ceiling: 2600 feet AGL
Clouds: broken clouds at 2600 feet AGL
Weather: no significant weather observed at this time

METAR text: CYOW 212300Z 32009KT 15SM BKN027 12/07 A3008 RMK SC7 SLP191
Conditions at: CYOW (OTTAWA INTL , ON, CA) observed 2300 UTC 21 April 2019
Temperature: 12.0°C (54°F)
Dewpoint: 7.0°C (45°F) [RH = 71%]
Pressure (altimeter): 30.08 inches Hg (1018.7 mb)
[Sea-level pressure: 1019.1 mb]
Winds: from the NW (320 degrees) at 10 MPH (9 knots; 4.6 m/s)
Visibility: 15 miles (24 km)
Ceiling: 2700 feet AGL
Clouds: broken clouds at 2700 feet AGL
Weather: no significant weather observed at this time

METAR text: CYOW 212200Z 32009KT 15SM BKN026 12/07 A3008 RMK SC7 SLP189
Conditions at: CYOW (OTTAWA INTL , ON, CA) observed 2200 UTC 21 April 2019
Temperature: 12.0°C (54°F)
Dewpoint: 7.0°C (45°F) [RH = 71%]
Pressure (altimeter): 30.08 inches Hg (1018.7 mb)
[Sea-level pressure: 1018.9 mb]
Winds: from the NW (320 degrees) at 10 MPH (9 knots; 4.6 m/s)
Visibility: 15 miles (24 km)
Ceiling: 2600 feet AGL
Clouds: broken clouds at 2600 feet AGL
Weather: no significant weather observed at this time

METAR text: CYOW 212100Z 30008KT 15SM OVC022 13/08 A3007 RMK SC8 SLP186
Conditions at: CYOW (OTTAWA INTL , ON, CA) observed 2100 UTC 21 April 2019
Temperature: 13.0°C (55°F)
Dewpoint: 8.0°C (46°F) [RH = 72%]
Pressure (altimeter): 30.07 inches Hg (1018.4 mb)
[Sea-level pressure: 1018.6 mb]
Winds: from the WNW (300 degrees) at 9 MPH (8 knots; 4.1 m/s)
Visibility: 15 miles (24 km)
Ceiling: 2200 feet AGL
Clouds: overcast cloud deck at 2200 feet AGL
Weather: no significant weather observed at this time

METAR text: CYOW 212000Z 31009KT 15SM OVC024 13/08 A3005 RMK SC8 SLP181
Conditions at: CYOW (OTTAWA INTL , ON, CA) observed 2000 UTC 21 April 2019
Temperature: 13.0°C (55°F)
Dewpoint: 8.0°C (46°F) [RH = 72%]
Pressure (altimeter): 30.05 inches Hg (1017.7 mb)
[Sea-level pressure: 1018.1 mb]
Winds: from the NW (310 degrees) at 10 MPH (9 knots; 4.6 m/s)
Visibility: 15 miles (24 km)
Ceiling: 2400 feet AGL
Clouds: overcast cloud deck at 2400 feet AGL
Weather: no significant weather observed at this time

METAR text: CYOW 211900Z 28009KT 270V340 15SM OVC022 13/08 A3003 RMK SC8 SLP175
Conditions at: CYOW (OTTAWA INTL , ON, CA) observed 1900 UTC 21 April 2019
Temperature: 13.0°C (55°F)
Dewpoint: 8.0°C (46°F) [RH = 72%]
Pressure (altimeter): 30.03 inches Hg (1017.0 mb)
[Sea-level pressure: 1017.5 mb]
Winds: from the W (280 degrees) at 10 MPH (9 knots; 4.6 m/s)
Visibility: 15 miles (24 km)
Ceiling: 2200 feet AGL
Clouds: overcast cloud deck at 2200 feet AGL
Weather: no significant weather observed at this time

METAR text: CYOW 211800Z 26007KT 190V300 15SM OVC020 12/08 A3002 RMK SC8 SLP170
Conditions at: CYOW (OTTAWA INTL , ON, CA) observed 1800 UTC 21 April 2019
Temperature: 12.0°C (54°F)
Dewpoint: 8.0°C (46°F) [RH = 76%]
Pressure (altimeter): 30.02 inches Hg (1016.7 mb)
[Sea-level pressure: 1017.0 mb]
Winds: from the W (260 degrees) at 8 MPH (7 knots; 3.6 m/s)
Visibility: 15 miles (24 km)
Ceiling: 2000 feet AGL
Clouds: overcast cloud deck at 2000 feet AGL
Weather: no significant weather observed at this time

METAR text: CYOW 211700Z 20004KT 150V260 15SM OVC015 11/07 A3000 RMK SC8 SLP165
Conditions at: CYOW (OTTAWA INTL , ON, CA) observed 1700 UTC 21 April 2019
Temperature: 11.0°C (52°F)
Dewpoint: 7.0°C (45°F) [RH = 76%]
Pressure (altimeter): 30.00 inches Hg (1016.0 mb)
[Sea-level pressure: 1016.5 mb]
Winds: from the SSW (200 degrees) at 5 MPH (4 knots; 2.1 m/s)
Visibility: 15 miles (24 km)
Ceiling: 1500 feet AGL
Clouds: overcast cloud deck at 1500 feet AGL
Weather: no significant weather observed at this time

METAR text: CYOW 211600Z 23006KT 170V250 15SM OVC012 10/07 A3000 RMK SC8 SLP163
Conditions at: CYOW (OTTAWA INTL , ON, CA) observed 1600 UTC 21 April 2019
Temperature: 10.0°C (50°F)
Dewpoint: 7.0°C (45°F) [RH = 82%]
Pressure (altimeter): 30.00 inches Hg (1016.0 mb)
[Sea-level pressure: 1016.3 mb]
Winds: from the SW (230 degrees) at 7 MPH (6 knots; 3.1 m/s)
Visibility: 15 miles (24 km)
Ceiling: 1200 feet AGL
Clouds: overcast cloud deck at 1200 feet AGL
Weather: no significant weather observed at this time

METAR text: CYOW 211500Z 24005KT 200V280 15SM OVC010 09/07 A2998 RMK SC8 SLP158
Conditions at: CYOW (OTTAWA INTL , ON, CA) observed 1500 UTC 21 April 2019
Temperature: 9.0°C (48°F)
Dewpoint: 7.0°C (45°F) [RH = 87%]
Pressure (altimeter): 29.98 inches Hg (1015.3 mb)
[Sea-level pressure: 1015.8 mb]
Winds: from the WSW (240 degrees) at 6 MPH (5 knots; 2.6 m/s)
Visibility: 15 miles (24 km)
Ceiling: 1000 feet AGL
Clouds: overcast cloud deck at 1000 feet AGL
Weather: no significant weather observed at this time

METAR text: CYOW 211400Z 24005KT 210V280 15SM OVC010 08/07 A2996 RMK SC8 SLP149
Conditions at: CYOW (OTTAWA INTL , ON, CA) observed 1400 UTC 21 April 2019
Temperature: 8.0°C (46°F)
Dewpoint: 7.0°C (45°F) [RH = 93%]
Pressure (altimeter): 29.96 inches Hg (1014.6 mb)
[Sea-level pressure: 1014.9 mb]
Winds: from the WSW (240 degrees) at 6 MPH (5 knots; 2.6 m/s)
Visibility: 15 miles (24 km)
Ceiling: 1000 feet AGL
Clouds: overcast cloud deck at 1000 feet AGL
Weather: no significant weather observed at this time

METAR text: CYOW 211300Z 25006KT 10SM OVC008 07/07 A2995 RMK SC8 SLP146
Conditions at: CYOW (OTTAWA INTL , ON, CA) observed 1300 UTC 21 April 2019
Temperature: 7.0°C (45°F)
Dewpoint: 7.0°C (45°F) [RH = 100%]
Pressure (altimeter): 29.95 inches Hg (1014.3 mb)
[Sea-level pressure: 1014.6 mb]
Winds: from the WSW (250 degrees) at 7 MPH (6 knots; 3.1 m/s)
Visibility: 10 or more miles (16+ km)
Ceiling: 800 feet AGL
Clouds: overcast cloud deck at 800 feet AGL
Weather: no significant weather observed at this time

METAR text: CYOW 211218Z 22005KT 5SM BR OVC004 07/07 A2994 RMK ST8 SLP142
Conditions at: CYOW (OTTAWA INTL , ON, CA) observed 1218 UTC 21 April 2019
Temperature: 7.0°C (45°F)
Dewpoint: 7.0°C (45°F) [RH = 100%]
Pressure (altimeter): 29.94 inches Hg (1014.0 mb)
[Sea-level pressure: 1014.2 mb]
Winds: from the SW (220 degrees) at 6 MPH (5 knots; 2.6 m/s)
Visibility: 5 miles ( 8 km)
Ceiling: 400 feet AGL
Clouds: overcast cloud deck at 400 feet AGL
Weather: BR  (mist)

METAR text: CYOW 211200Z 21005KT 4SM BR OVC002 07/06 A2993 RMK ST8 PRESRR SLP140
Conditions at: CYOW (OTTAWA INTL , ON, CA) observed 1200 UTC 21 April 2019
Temperature: 7.0°C (45°F)
Dewpoint: 6.0°C (43°F) [RH = 93%]
Pressure (altimeter): 29.93 inches Hg (1013.6 mb)
[Sea-level pressure: 1014.0 mb]
Winds: from the SSW (210 degrees) at 6 MPH (5 knots; 2.6 m/s)
Visibility: 4 miles ( 6 km)
Ceiling: 200 feet AGL
Clouds: overcast cloud deck at 200 feet AGL
Weather: BR  (mist)

METAR text: CYOW 211124Z 24005KT 1SM R32/P6000FT/D R07/P6000FT/D -DZ BR OVC002 06/06 A2991 RMK FG4ST4 SLP134
Conditions at: CYOW (OTTAWA INTL , ON, CA) observed 1124 UTC 21 April 2019
Temperature: 6.0°C (43°F)
Dewpoint: 6.0°C (43°F) [RH = 100%]
Pressure (altimeter): 29.91 inches Hg (1013.0 mb)
[Sea-level pressure: 1013.4 mb]
Winds: from the WSW (240 degrees) at 6 MPH (5 knots; 2.6 m/s)
Visibility: 1.00 miles (1.61 km)
Ceiling: 200 feet AGL
Clouds: overcast cloud deck at 200 feet AGL
Weather: -DZ BR  (light drizzle, mist)

METAR text: CYOW 211100Z 21004KT 2SM BR OVC002 06/06 A2991 RMK FG2ST6 PRESRR SLP132
Conditions at: CYOW (OTTAWA INTL , ON, CA) observed 1100 UTC 21 April 2019
Temperature: 6.0°C (43°F)
Dewpoint: 6.0°C (43°F) [RH = 100%]
Pressure (altimeter): 29.91 inches Hg (1013.0 mb)
[Sea-level pressure: 1013.2 mb]
Winds: from the SSW (210 degrees) at 5 MPH (4 knots; 2.1 m/s)
Visibility: 2.00 miles (3.22 km)
Ceiling: 200 feet AGL
Clouds: overcast cloud deck at 200 feet AGL
Weather: BR  (mist)

METAR text: CYOW 211039Z 24004KT 2SM BR SCT250 06/05 A2989 RMK FG2CI1 SLP125
Conditions at: CYOW (OTTAWA INTL , ON, CA) observed 1039 UTC 21 April 2019
Temperature: 6.0°C (43°F)
Dewpoint: 5.0°C (41°F) [RH = 93%]
Pressure (altimeter): 29.89 inches Hg (1012.3 mb)
[Sea-level pressure: 1012.5 mb]
Winds: from the WSW (240 degrees) at 5 MPH (4 knots; 2.1 m/s)
Visibility: 2.00 miles (3.22 km)
Ceiling: at least 12,000 feet AGL
Clouds: scattered clouds at 25000 feet AGL
Weather: BR  (mist)

METAR text: CYOW 211017Z 22006KT 1SM R32/P6000FT/N R07/P6000FT/D -DZ BR OVC002 06/06 A2988 RMK FG6ST2 PRESRR SLP123
Conditions at: CYOW (OTTAWA INTL , ON, CA) observed 1017 UTC 21 April 2019
Temperature: 6.0°C (43°F)
Dewpoint: 6.0°C (43°F) [RH = 100%]
Pressure (altimeter): 29.88 inches Hg (1011.9 mb)
[Sea-level pressure: 1012.3 mb]
Winds: from the SW (220 degrees) at 7 MPH (6 knots; 3.1 m/s)
Visibility: 1.00 miles (1.61 km)
Ceiling: 200 feet AGL
Clouds: overcast cloud deck at 200 feet AGL
Weather: -DZ BR  (light drizzle, mist)

METAR text: CYOW 211000Z 22005KT 1 1/2SM -DZ BR OVC003 06/06 A2986 RMK FG5ST3 CIG VRB 2-4 SLP116
Conditions at: CYOW (OTTAWA INTL , ON, CA) observed 1000 UTC 21 April 2019
Temperature: 6.0°C (43°F)
Dewpoint: 6.0°C (43°F) [RH = 100%]
Pressure (altimeter): 29.86 inches Hg (1011.3 mb)
[Sea-level pressure: 1011.6 mb]
Winds: from the SW (220 degrees) at 6 MPH (5 knots; 2.6 m/s)
Visibility: 1.50 miles (2.41 km)
Ceiling: 300 feet AGL
Clouds: overcast cloud deck at 300 feet AGL
Weather: -DZ BR  (light drizzle, mist)

METAR text: CYOW 210926Z 21004KT 1SM R32/3500VP6000FT/U R07/P6000FT/U BR OVC003 06/06 A2984 RMK FG6ST2 SLP111
Conditions at: CYOW (OTTAWA INTL , ON, CA) observed 0926 UTC 21 April 2019
Temperature: 6.0°C (43°F)
Dewpoint: 6.0°C (43°F) [RH = 100%]
Pressure (altimeter): 29.84 inches Hg (1010.6 mb)
[Sea-level pressure: 1011.1 mb]
Winds: from the SSW (210 degrees) at 5 MPH (4 knots; 2.1 m/s)
Visibility: 1.00 miles (1.61 km)
Ceiling: 300 feet AGL
Clouds: overcast cloud deck at 300 feet AGL
Weather: BR  (mist)

METAR text: CYOW 210900Z 23004KT 1/2SM R32/3000FT/N R07/3000V4500FT/N -DZ FG VV002 06/06 A2983 RMK FG8 CIG VRB 1-3 SLP106
Conditions at: CYOW (OTTAWA INTL , ON, CA) observed 0900 UTC 21 April 2019
Temperature: 6.0°C (43°F)
Dewpoint: 6.0°C (43°F) [RH = 100%]
Pressure (altimeter): 29.83 inches Hg (1010.2 mb)
[Sea-level pressure: 1010.6 mb]
Winds: from the SW (230 degrees) at 5 MPH (4 knots; 2.1 m/s)
Visibility: 0.50 miles (0.80 km)
Ceiling: indefinite ceiling with vertical visibility of 200 feet AGL
Clouds: obscured sky
Weather: -DZ FG  (light drizzle, fog)

METAR text: CYOW 210800Z 18002KT 1/4SM R32/2400FT/N R07/2600FT/N -DZ FG VV001 06/05 A2981 RMK FG8 SLP099
Conditions at: CYOW (OTTAWA INTL , ON, CA) observed 0800 UTC 21 April 2019
Temperature: 6.0°C (43°F)
Dewpoint: 5.0°C (41°F) [RH = 93%]
Pressure (altimeter): 29.81 inches Hg (1009.6 mb)
[Sea-level pressure: 1009.9 mb]
Winds: from the S (180 degrees) at 2 MPH (2 knots; 1.0 m/s)
Visibility: 0.25 miles (0.40 km)
Ceiling: indefinite ceiling with vertical visibility of 100 feet AGL
Clouds: obscured sky
Weather: -DZ FG  (light drizzle, fog)

METAR text: CYOW 210700Z 15003KT 1/4SM R32/2200FT/N R07/2400FT/N -DZ FG VV001 06/06 A2978 RMK FG8 SLP089
Conditions at: CYOW (OTTAWA INTL , ON, CA) observed 0700 UTC 21 April 2019
Temperature: 6.0°C (43°F)
Dewpoint: 6.0°C (43°F) [RH = 100%]
Pressure (altimeter): 29.78 inches Hg (1008.5 mb)
[Sea-level pressure: 1008.9 mb]
Winds: from the SSE (150 degrees) at 3 MPH (3 knots; 1.5 m/s)
Visibility: 0.25 miles (0.40 km)
Ceiling: indefinite ceiling with vertical visibility of 100 feet AGL
Clouds: obscured sky
Weather: -DZ FG  (light drizzle, fog)

METAR text: CYOW 210636Z 11005KT 1/4SM R32/1400FT/N R07/1600FT/N -DZ FG VV001 06/05 A2977 RMK FG8 SLP085
Conditions at: CYOW (OTTAWA INTL , ON, CA) observed 0636 UTC 21 April 2019
Temperature: 6.0°C (43°F)
Dewpoint: 5.0°C (41°F) [RH = 93%]
Pressure (altimeter): 29.77 inches Hg (1008.2 mb)
[Sea-level pressure: 1008.5 mb]
Winds: from the ESE (110 degrees) at 6 MPH (5 knots; 2.6 m/s)
Visibility: 0.25 miles (0.40 km)
Ceiling: indefinite ceiling with vertical visibility of 100 feet AGL
Clouds: obscured sky
Weather: -DZ FG  (light drizzle, fog)

METAR text: CYOW 210600Z 12005KT 1/4SM R32/1800FT/N R07/2000FT/N FG VV001 06/05 A2976 RMK FG8 SLP083
Conditions at: CYOW (OTTAWA INTL , ON, CA) observed 0600 UTC 21 April 2019
Temperature: 6.0°C (43°F)
Dewpoint: 5.0°C (41°F) [RH = 93%]
Pressure (altimeter): 29.76 inches Hg (1007.9 mb)
[Sea-level pressure: 1008.3 mb]
Winds: from the ESE (120 degrees) at 6 MPH (5 knots; 2.6 m/s)
Visibility: 0.25 miles (0.40 km)
Ceiling: indefinite ceiling with vertical visibility of 100 feet AGL
Clouds: obscured sky
Weather: FG  (fog)

METAR text: CYOW 210535Z 10006KT 3/8SM R32/2600FT/D R07/3000FT/N FG VV001 06/05 A2975 RMK FG8 SLP079
Conditions at: CYOW (OTTAWA INTL , ON, CA) observed 0535 UTC 21 April 2019
Temperature: 6.0°C (43°F)
Dewpoint: 5.0°C (41°F) [RH = 93%]
Pressure (altimeter): 29.75 inches Hg (1007.5 mb)
[Sea-level pressure: 1007.9 mb]
Winds: from the E (100 degrees) at 7 MPH (6 knots; 3.1 m/s)
Visibility: 0.38 miles (0.61 km)
Ceiling: indefinite ceiling with vertical visibility of 100 feet AGL
Clouds: obscured sky
Weather: FG  (fog)

METAR text: CYOW 210523Z 09006KT 1/2SM R32/3500FT/D R07/4000FT/N FG VV001 06/05 A2974 RMK FG8 SLP077
Conditions at: CYOW (OTTAWA INTL , ON, CA) observed 0523 UTC 21 April 2019
Temperature: 6.0°C (43°F)
Dewpoint: 5.0°C (41°F) [RH = 93%]
Pressure (altimeter): 29.74 inches Hg (1007.2 mb)
[Sea-level pressure: 1007.7 mb]
Winds: from the E (90 degrees) at 7 MPH (6 knots; 3.1 m/s)
Visibility: 0.50 miles (0.80 km)
Ceiling: indefinite ceiling with vertical visibility of 100 feet AGL
Clouds: obscured sky
Weather: FG  (fog)

METAR text: CYOW 210514Z 07006KT 1/2SM R32/4000FT/D R07/4000V5000FT/D FG VV002 06/05 A2974 RMK FG8 CIG VRB 1-3 SLP077
Conditions at: CYOW (OTTAWA INTL , ON, CA) observed 0514 UTC 21 April 2019
Temperature: 6.0°C (43°F)
Dewpoint: 5.0°C (41°F) [RH = 93%]
Pressure (altimeter): 29.74 inches Hg (1007.2 mb)
[Sea-level pressure: 1007.7 mb]
Winds: from the ENE (70 degrees) at 7 MPH (6 knots; 3.1 m/s)
Visibility: 0.50 miles (0.80 km)
Ceiling: indefinite ceiling with vertical visibility of 200 feet AGL
Clouds: obscured sky
Weather: FG  (fog)

METAR text: CYOW 210500Z 00000KT 3/4SM R32/4500VP6000FT/D R07/5000VP6000FT/D BR OVC002 06/05 A2975 RMK FG6SC2 CIG VRB 1-3 SLP080
Conditions at: CYOW (OTTAWA INTL , ON, CA) observed 0500 UTC 21 April 2019
Temperature: 6.0°C (43°F)
Dewpoint: 5.0°C (41°F) [RH = 93%]
Pressure (altimeter): 29.75 inches Hg (1007.5 mb)
[Sea-level pressure: 1008.0 mb]
Winds: calm
Visibility: 0.75 miles (1.21 km)
Ceiling: 200 feet AGL
Clouds: overcast cloud deck at 200 feet AGL
Weather: BR  (mist)

METAR text: CYOW 210452Z 00000KT 1SM R32/5500VP6000FT/D R07/P6000FT/N BR OVC002 06/05 A2975 RMK FG5SC3 CIG VRB 1-3 PRESRR SLP080
Conditions at: CYOW (OTTAWA INTL , ON, CA) observed 0452 UTC 21 April 2019
Temperature: 6.0°C (43°F)
Dewpoint: 5.0°C (41°F) [RH = 93%]
Pressure (altimeter): 29.75 inches Hg (1007.5 mb)
[Sea-level pressure: 1008.0 mb]
Winds: calm
Visibility: 1.00 miles (1.61 km)
Ceiling: 200 feet AGL
Clouds: overcast cloud deck at 200 feet AGL
Weather: BR  (mist)

METAR text: CYOW 210419Z 09005KT 1 1/2SM BR OVC002 06/05 A2974 RMK FG3SC5 CIG VRB 1-3 SLP077
Conditions at: CYOW (OTTAWA INTL , ON, CA) observed 0419 UTC 21 April 2019
Temperature: 6.0°C (43°F)
Dewpoint: 5.0°C (41°F) [RH = 93%]
Pressure (altimeter): 29.74 inches Hg (1007.2 mb)
[Sea-level pressure: 1007.7 mb]
Winds: from the E (90 degrees) at 6 MPH (5 knots; 2.6 m/s)
Visibility: 1.50 miles (2.41 km)
Ceiling: 200 feet AGL
Clouds: overcast cloud deck at 200 feet AGL
Weather: BR  (mist)

METAR text: CYOW 210400Z 09003KT 050V110 3SM BR OVC002 06/05 A2974 RMK FG2SC6 CIG VRB 1-3 SLP076
Conditions at: CYOW (OTTAWA INTL , ON, CA) observed 0400 UTC 21 April 2019
Temperature: 6.0°C (43°F)
Dewpoint: 5.0°C (41°F) [RH = 93%]
Pressure (altimeter): 29.74 inches Hg (1007.2 mb)
[Sea-level pressure: 1007.6 mb]
Winds: from the E (90 degrees) at 3 MPH (3 knots; 1.5 m/s)
Visibility: 3 miles ( 5 km)
Ceiling: 200 feet AGL
Clouds: overcast cloud deck at 200 feet AGL
Weather: BR  (mist)

METAR text: CYOW 210300Z 08010G15KT 3SM BR OVC002 06/05 A2972 RMK FG2SC6 CIG VRB 1-3 SLP067
Conditions at: CYOW (OTTAWA INTL , ON, CA) observed 0300 UTC 21 April 2019
Temperature: 6.0°C (43°F)
Dewpoint: 5.0°C (41°F) [RH = 93%]
Pressure (altimeter): 29.72 inches Hg (1006.5 mb)
[Sea-level pressure: 1006.7 mb]
Winds: from the E (80 degrees) at 12 MPH (10 knots; 5.1 m/s)
gusting to 17 MPH (15 knots; 7.7 m/s)
Visibility: 3 miles ( 5 km)
Ceiling: 200 feet AGL
Clouds: overcast cloud deck at 200 feet AGL
Weather: BR  (mist)

METAR text: CYOW 210242Z 08010KT 3SM BR OVC002 06/05 A2971 RMK FG2SC6 CIG VRB 1-3 SLP066
Conditions at: CYOW (OTTAWA INTL , ON, CA) observed 0242 UTC 21 April 2019
Temperature: 6.0°C (43°F)
Dewpoint: 5.0°C (41°F) [RH = 93%]
Pressure (altimeter): 29.71 inches Hg (1006.2 mb)
[Sea-level pressure: 1006.6 mb]
Winds: from the E (80 degrees) at 12 MPH (10 knots; 5.1 m/s)
Visibility: 3 miles ( 5 km)
Ceiling: 200 feet AGL
Clouds: overcast cloud deck at 200 feet AGL
Weather: BR  (mist)

Forecast for: CYOW (OTTAWA INTL , ON, CA)
Text: TAF CYOW 221139Z 2212/2312 06005KT P6SM BKN100
Forecast period: 1200 UTC 22 April 2019 to 1200 UTC 23 April 2019
Forecast type: FROM: standard forecast or significant change
Winds: from the ENE (60 degrees) at 6 MPH (5 knots; 2.6 m/s)
Visibility: 6 or more miles 10+ km)
Ceiling: 10000 feet AGL
Clouds: broken clouds at 10000 feet AGL
Weather: no significant weather forecast for this period
Text: BECMG 2212/2214 03008KT FEW030 SCT100
Forecast period: 1200 to 2200 UTC 22 April 2019
Forecast type: BECOMING: Conditions expected to become as follows by 1400 UTC 22 April 2019
Winds: from the NNE (30 degrees) at 9 MPH (8 knots; 4.1 m/s)
Visibility: 6 or more miles 10+ km)
Ceiling: at least 12,000 feet AGL
Clouds: few clouds at 3000 feet AGL
scattered clouds at 10000 feet AGL
Weather: no significant weather forecast for this period
Text: FM222200 03012KT P6SM FEW100
Forecast period: 2200 UTC 22 April 2019 to 0900 UTC 23 April 2019
Forecast type: FROM: standard forecast or significant change
Winds: from the NNE (30 degrees) at 14 MPH (12 knots; 6.2 m/s)
Visibility: 6 or more miles 10+ km)
Ceiling: at least 12,000 feet AGL
Clouds: few clouds at 10000 feet AGL
Weather: no significant weather forecast for this period
Text: FM230900 06008KT P6SM BKN090 RMK NXT FCST BY 221500Z
Forecast period: 0900 to 1200 UTC 23 April 2019
Forecast type: FROM: standard forecast or significant change
Winds: from the ENE (60 degrees) at 9 MPH (8 knots; 4.1 m/s)
Visibility: 6 or more miles 10+ km)
Ceiling: 9000 feet AGL
Clouds: broken clouds at 9000 feet AGL
Weather: no significant weather forecast for this period